Time;durP1;ratioP1;P1;durP2;ratioP2;P2;SDS_P1;SDS_P2;PMS_P1;PMS_P2;Temp;Humidity;BMP_temperature;BMP_pressure;BME280_temperature;BME280_humidity;BME280_pressure;Samples;Min_cycle;Max_cycle;Signal;HPM_P1;HPM_P2
2022/09/26 00:00:41;;;;;;;6.75;6.15;;;;;;;16.99;53.47;99444.53;5074801;28;20059;-79
2022/09/26 00:03:07;;;;;;;6.40;5.85;;;;;;;16.93;53.21;99425.94;5073484;28;20032;-79
2022/09/26 00:05:33;;;;;;;7.32;6.63;;;;;;;16.93;53.21;99439.25;5074862;28;20021;-78
2022/09/26 00:07:58;;;;;;;7.03;5.82;;;;;;;17.01;53.41;99460.31;5074752;28;20031;-79
2022/09/26 00:10:23;;;;;;;6.35;5.75;;;;;;;16.86;53.33;99431.34;5073466;28;20047;-79
2022/09/26 00:12:49;;;;;;;6.65;5.78;;;;;;;16.20;53.36;99312.84;5074492;28;20024;-79
2022/09/26 00:15:14;;;;;;;6.68;5.60;;;;;;;17.32;53.70;99502.06;5073164;28;20025;-78
2022/09/26 00:17:40;;;;;;;6.18;5.47;;;;;;;17.21;53.71;99500.94;5074302;28;20028;-79
2022/09/26 00:20:05;;;;;;;7.20;6.07;;;;;;;17.23;53.84;99503.41;5073276;28;20032;-79
2022/09/26 00:22:31;;;;;;;6.63;5.90;;;;;;;16.74;53.69;99433.91;5072906;28;20060;-79
2022/09/26 00:24:56;;;;;;;5.55;5.15;;;;;;;17.17;53.89;99501.63;5074274;28;20482;-79
2022/09/26 00:27:22;;;;;;;6.72;6.13;;;;;;;17.19;53.71;99527.03;5074219;28;20024;-79
2022/09/26 00:29:48;;;;;;;8.13;6.22;;;;;;;17.00;53.54;99467.50;5074273;28;20021;-79
2022/09/26 00:32:13;;;;;;;6.28;5.68;;;;;;;16.58;53.40;99415.78;5073085;28;20404;-79
2022/09/26 00:34:39;;;;;;;6.70;6.10;;;;;;;16.32;53.51;99392.03;5074515;28;20020;-78
2022/09/26 00:37:04;;;;;;;6.25;5.47;;;;;;;17.07;53.44;99508.25;5074152;28;20531;-79
2022/09/26 00:39:29;;;;;;;6.53;5.93;;;;;;;16.27;53.42;99384.69;5073890;28;20029;-79
2022/09/26 00:41:55;;;;;;;6.45;5.03;;;;;;;16.44;53.62;99411.63;5072714;28;20116;-79
2022/09/26 00:44:47;;;;;;;6.15;5.55;;;;;;;17.00;53.41;99502.16;5074077;28;20020;-79
2022/09/26 00:47:58;;;;;;;7.93;6.28;;;;;;;16.53;53.04;99440.44;5072861;28;20023;-79
2022/09/26 00:50:37;;;;;;;5.50;4.97;;;;;;;16.99;53.03;99499.72;5031917;28;20021;-79
2022/09/26 00:53:10;;;;;;;6.18;5.68;;;;;;;17.01;52.84;99503.81;5069768;28;20046;-79
2022/09/26 00:55:41;;;;;;;6.30;5.70;;;;;;;16.60;53.17;99442.22;5072984;28;20020;-79
2022/09/26 00:58:26;;;;;;;6.00;5.50;;;;;;;15.87;52.58;99352.25;5073937;28;20023;-79
2022/09/26 01:00:52;;;;;;;6.00;5.50;;;;;;;16.56;52.69;99465.03;5072412;28;20135;-79
2022/09/26 01:03:19;;;;;;;5.13;4.72;;;;;;;16.77;52.55;99510.78;5073633;28;20166;-79
2022/09/26 01:05:45;;;;;;;5.80;5.30;;;;;;;16.19;52.57;99423.09;5072333;28;20020;-79
2022/09/26 01:08:13;;;;;;;5.50;5.00;;;;;;;16.61;52.27;99506.00;5072368;28;20181;-79
2022/09/26 01:10:38;;;;;;;6.10;5.53;;;;;;;16.07;52.54;99446.13;5073521;28;20053;-79
2022/09/26 01:13:07;;;;;;;6.57;5.60;;;;;;;15.95;52.75;99447.84;5072304;28;20032;-79
2022/09/26 01:15:33;;;;;;;5.65;4.88;;;;;;;16.26;52.80;99497.63;5073482;28;20020;-79
2022/09/26 01:17:58;;;;;;;5.85;5.25;;;;;;;15.30;52.54;99354.00;5072037;28;20400;-79
2022/09/26 01:20:26;;;;;;;6.03;5.18;;;;;;;16.13;53.00;99495.06;5073300;28;20027;-79
2022/09/26 01:22:52;;;;;;;5.30;4.90;;;;;;;16.26;52.65;99496.81;5073225;28;20141;-79
2022/09/26 01:25:45;;;;;;;5.72;5.15;;;;;;;16.13;53.03;99481.72;5073343;28;20021;-79
2022/09/26 01:28:54;;;;;;;5.95;5.40;;;;;;;16.20;52.71;99490.50;5071951;28;20447;-79
2022/09/26 01:32:47;;;;;;;7.00;6.30;;;;;;;16.10;52.61;99492.81;5073392;28;20028;-79
2022/09/26 01:34:41;;;;;;;5.47;5.07;;;;;;;15.86;53.34;99489.06;5073678;28;20025;-79
2022/09/26 01:37:16;;;;;;;5.68;5.18;;;;;;;15.95;53.21;99489.63;5073243;28;20439;-79
2022/09/26 01:39:44;;;;;;;6.18;5.53;;;;;;;15.96;53.16;99484.09;5073186;28;20060;-79
2022/09/26 01:42:30;;;;;;;6.15;5.65;;;;;;;15.98;53.31;99478.56;5072811;28;20052;-79
2022/09/26 01:45:11;;;;;;;5.93;5.43;;;;;;;15.94;53.05;99477.34;5072904;28;20081;-79
2022/09/26 01:47:47;;;;;;;6.05;5.45;;;;;;;15.56;52.48;99398.28;5072984;28;20016;-79
2022/09/26 01:50:12;;;;;;;5.75;5.25;;;;;;;16.15;52.57;99482.34;5071547;28;20035;-79
2022/09/26 01:52:58;;;;;;;6.40;5.28;;;;;;;15.75;52.64;99421.34;5072956;28;20020;-79
2022/09/26 01:55:29;;;;;;;6.00;5.40;;;;;;;16.13;52.36;99458.56;5072670;28;20032;-79
2022/09/26 01:58:09;;;;;;;8.07;5.55;;;;;;;15.87;52.50;99424.16;5072640;28;20490;-79
2022/09/26 02:00:36;;;;;;;5.35;4.85;;;;;;;15.91;52.05;99437.84;5072400;28;20131;-79
2022/09/26 02:03:05;;;;;;;8.13;5.40;;;;;;;16.12;51.65;99490.75;5072606;28;20048;-79
2022/09/26 02:05:31;;;;;;;5.72;5.05;;;;;;;16.03;51.57;99492.03;5071208;28;20103;-79
2022/09/26 02:08:16;;;;;;;5.95;5.35;;;;;;;15.48;51.31;99463.19;5071470;28;20028;-79
2022/09/26 02:10:54;;;;;;;6.72;5.28;;;;;;;14.99;51.88;99362.75;5072209;28;20032;-79
2022/09/26 02:13:27;;;;;;;5.70;5.07;;;;;;;15.00;51.52;99356.41;5071163;28;20027;-79
2022/09/26 02:15:59;;;;;;;6.13;5.10;;;;;;;15.74;51.48;99478.28;5072331;28;20021;-79
2022/09/26 02:18:33;;;;;;;5.32;4.85;;;;;;;15.70;51.53;99481.59;5072191;28;20025;-79
2022/09/26 02:21:08;;;;;;;7.75;5.30;;;;;;;15.33;51.61;99443.22;5072075;28;20103;-79
2022/09/26 02:23:33;;;;;;;6.65;5.15;;;;;;;15.03;51.90;99387.91;5072058;28;20485;-79
2022/09/26 02:25:59;;;;;;;5.50;5.10;;;;;;;15.62;51.92;99485.31;5071912;28;20032;-79
2022/09/26 02:28:24;;;;;;;5.90;5.40;;;;;;;14.82;51.69;99365.03;5071813;28;20020;-79
2022/09/26 02:30:52;;;;;;;5.65;4.88;;;;;;;15.09;51.95;99418.16;5071988;28;20405;-79
2022/09/26 02:33:18;;;;;;;6.55;6.00;;;;;;;14.83;52.13;99373.81;5072030;28;20479;-79
2022/09/26 02:35:56;;;;;;;7.88;5.50;;;;;;;14.94;52.41;99410.41;5071920;28;20099;-79
2022/09/26 02:38:24;;;;;;;6.13;5.53;;;;;;;15.37;52.41;99468.38;5071900;28;20028;-79
2022/09/26 02:40:59;;;;;;;6.40;5.40;;;;;;;15.33;52.37;99475.13;5071863;28;20497;-79
2022/09/26 02:43:48;;;;;;;5.80;5.30;;;;;;;15.36;52.46;99472.06;5071785;28;20031;-79
2022/09/26 02:46:38;;;;;;;7.00;6.22;;;;;;;15.41;51.95;99478.38;5071751;28;20029;-79
2022/09/26 02:49:06;;;;;;;5.90;5.40;;;;;;;15.34;52.18;99476.75;5071795;28;20016;-79
2022/09/26 02:51:53;;;;;;;6.13;5.40;;;;;;;15.32;52.13;99471.66;5070509;28;20085;-79
2022/09/26 02:54:38;;;;;;;5.85;5.35;;;;;;;15.05;51.83;99440.88;5072148;28;20119;-79
2022/09/26 02:57:25;;;;;;;6.55;5.53;;;;;;;15.08;51.52;99413.84;5072015;28;20386;-79
2022/09/26 03:00:02;;;;;;;6.18;5.63;;;;;;;14.60;52.00;99329.94;5071662;28;20052;-79
2022/09/26 03:02:59;;;;;;;7.20;5.70;;;;;;;15.34;51.64;99445.66;5071718;28;20024;-79
2022/09/26 03:05:28;;;;;;;6.03;5.45;;;;;;;15.20;51.46;99422.81;5070407;28;20020;-79
2022/09/26 03:08:00;;;;;;;5.82;5.32;;;;;;;15.35;51.93;99457.94;5071456;28;20047;-79
2022/09/26 03:10:28;;;;;;;6.80;6.10;;;;;;;14.97;51.71;99391.41;5071720;28;20486;-79
2022/09/26 03:13:00;;;;;;;10.02;5.97;;;;;;;15.36;51.70;99467.56;5071589;28;20038;-79
2022/09/26 03:15:27;;;;;;;5.68;5.18;;;;;;;15.20;51.69;99438.75;5071578;28;20020;-79
2022/09/26 03:17:53;;;;;;;6.28;5.68;;;;;;;14.98;51.69;99397.53;5071305;28;20119;-79
2022/09/26 03:20:21;;;;;;;5.78;5.20;;;;;;;14.91;51.32;99376.28;5071345;28;20032;-79
2022/09/26 03:22:47;;;;;;;7.50;6.05;;;;;;;14.90;51.35;99364.00;5069251;28;20409;-79
2022/09/26 03:25:20;;;;;;;6.32;5.72;;;;;;;15.47;51.29;99447.44;5071257;28;20024;-79
2022/09/26 03:27:46;;;;;;;5.70;5.10;;;;;;;15.12;51.33;99415.88;5071166;28;20017;-79
2022/09/26 03:30:14;;;;;;;7.00;5.78;;;;;;;15.32;51.45;99465.53;5071332;28;20099;-79
2022/09/26 03:32:39;;;;;;;7.85;6.43;;;;;;;15.33;51.57;99459.16;5071157;28;20028;-78
2022/09/26 03:35:06;;;;;;;6.90;6.30;;;;;;;15.33;51.47;99459.16;5071199;28;20485;-79
2022/09/26 03:37:33;;;;;;;7.65;5.10;;;;;;;15.25;51.55;99469.03;5071082;28;20028;-79
2022/09/26 03:40:04;;;;;;;6.57;5.47;;;;;;;14.53;52.32;99374.31;5071088;28;20028;-79
2022/09/26 03:42:32;;;;;;;6.80;6.20;;;;;;;14.80;51.82;99438.03;5071060;28;20428;-78
2022/09/26 03:44:58;;;;;;;6.63;5.95;;;;;;;14.77;51.59;99411.88;5071072;28;20023;-79
2022/09/26 03:47:23;;;;;;;5.68;5.13;;;;;;;15.12;51.42;99465.59;5071118;28;20101;-79
2022/09/26 03:49:49;;;;;;;5.68;5.18;;;;;;;15.00;51.62;99451.31;5069844;28;20071;-79
2022/09/26 03:52:14;;;;;;;7.90;5.57;;;;;;;14.27;51.63;99353.09;5070759;28;20024;-79
2022/09/26 03:54:40;;;;;;;6.00;5.50;;;;;;;14.57;51.51;99396.78;5070755;28;20044;-79
2022/09/26 03:57:05;;;;;;;6.57;5.95;;;;;;;14.65;51.75;99426.81;5069660;28;20028;-79
2022/09/26 03:59:31;;;;;;;8.35;5.57;;;;;;;14.46;51.79;99407.22;5070524;28;20436;-79
2022/09/26 04:01:56;;;;;;;7.20;5.82;;;;;;;14.38;51.69;99388.81;5071011;28;20099;-79
2022/09/26 04:04:21;;;;;;;7.05;6.35;;;;;;;14.69;51.71;99436.00;5069471;28;20021;-79
2022/09/26 04:06:49;;;;;;;6.53;5.40;;;;;;;14.49;51.41;99398.84;5069769;28;20025;-79
2022/09/26 04:09:16;;;;;;;6.30;4.82;;;;;;;14.95;51.65;99475.84;5069779;28;20021;-78
2022/09/26 04:11:42;;;;;;;5.88;5.30;;;;;;;14.07;51.60;99323.06;5071377;28;20020;-79
2022/09/26 04:14:08;;;;;;;7.38;6.07;;;;;;;14.86;51.08;99435.38;5070956;28;20036;-79
2022/09/26 04:16:35;;;;;;;8.55;5.57;;;;;;;14.62;50.99;99389.00;5070852;28;20016;-79
2022/09/26 04:19:02;;;;;;;8.50;5.93;;;;;;;15.11;51.06;99443.50;5071121;28;20037;-79
2022/09/26 04:21:28;;;;;;;6.72;5.70;;;;;;;14.58;51.08;99361.22;5070989;28;20035;-79
2022/09/26 04:23:54;;;;;;;7.65;6.07;;;;;;;14.45;50.92;99331.22;5070775;28;20039;-79
2022/09/26 04:26:22;;;;;;;6.40;5.80;;;;;;;14.93;50.78;99387.53;5071084;28;20020;-79
2022/09/26 04:28:50;;;;;;;7.20;5.47;;;;;;;14.51;50.57;99320.56;5071061;28;20016;-79
2022/09/26 04:31:17;;;;;;;8.02;6.43;;;;;;;14.99;50.72;99393.84;5070343;28;20027;-78
2022/09/26 04:33:42;;;;;;;11.00;6.38;;;;;;;14.84;50.62;99386.91;5084547;28;20024;-80
2022/09/26 04:36:10;;;;;;;8.77;7.90;;;;;;;15.29;50.73;99463.28;5098580;28;20062;-78
2022/09/26 04:38:36;;;;;;;8.32;6.60;;;;;;;15.13;50.72;99461.91;5088630;28;20089;-79
2022/09/26 04:41:04;;;;;;;8.32;7.32;;;;;;;14.75;50.59;99398.78;5074403;28;20031;-79
2022/09/26 04:43:30;;;;;;;7.30;6.60;;;;;;;14.87;50.39;99421.06;5074313;28;20016;-79
2022/09/26 04:45:56;;;;;;;7.03;6.32;;;;;;;14.54;50.75;99377.78;5073226;28;20020;-79
2022/09/26 04:48:22;;;;;;;8.68;6.65;;;;;;;14.41;50.77;99381.25;5074631;28;20052;-79
2022/09/26 04:50:47;;;;;;;10.38;6.43;;;;;;;14.93;50.94;99438.03;5074159;28;20013;-79
2022/09/26 04:53:13;;;;;;;11.55;7.40;;;;;;;15.06;50.77;99455.78;5074070;28;20024;-79
2022/09/26 04:55:43;;;;;;;9.05;8.15;;;;;;;15.05;50.49;99454.16;5073928;28;20028;-79
2022/09/26 04:58:09;;;;;;;8.30;7.47;;;;;;;14.58;50.41;99377.16;5073444;28;20027;-79
2022/09/26 05:00:35;;;;;;;8.82;7.90;;;;;;;14.47;50.54;99358.38;5073238;28;20044;-79
2022/09/26 05:03:00;;;;;;;8.38;7.40;;;;;;;15.14;50.17;99467.00;5073271;28;20150;-79
2022/09/26 05:05:30;;;;;;;8.73;7.82;;;;;;;14.69;50.58;99404.94;5071947;28;20025;-79
2022/09/26 05:07:56;;;;;;;9.90;7.57;;;;;;;15.13;50.19;99452.09;5073241;28;20013;-79
2022/09/26 05:10:21;;;;;;;9.98;8.32;;;;;;;15.00;50.45;99428.19;5073185;28;20496;-79
2022/09/26 05:12:47;;;;;;;11.75;9.23;;;;;;;14.82;50.56;99412.06;5072502;28;20017;-79
2022/09/26 05:15:12;;;;;;;11.10;8.07;;;;;;;14.50;50.70;99356.13;5073442;28;20497;-79
2022/09/26 05:17:38;;;;;;;13.88;8.65;;;;;;;14.45;50.48;99355.94;5073277;28;20108;-78
2022/09/26 05:20:07;;;;;;;12.45;8.65;;;;;;;15.05;50.41;99446.19;5073439;28;20032;-79
2022/09/26 05:22:33;;;;;;;13.73;9.52;;;;;;;15.05;50.60;99452.31;5071745;28;20458;-79
2022/09/26 05:27:43;;;;;;;11.75;8.27;;;;;;;15.08;50.47;99478.50;5086682;28;20035;-79
2022/09/26 05:30:11;;;;;;;11.38;8.63;;;;;;;14.95;50.48;99430.66;5073516;28;20024;-78
2022/09/26 05:32:37;;;;;;;11.80;9.18;;;;;;;14.84;50.25;99410.00;5073558;28;20016;-79
2022/09/26 05:35:04;;;;;;;14.48;8.43;;;;;;;14.89;50.27;99410.22;5073153;28;20099;-78
2022/09/26 05:37:30;;;;;;;14.80;9.45;;;;;;;14.92;50.02;99393.88;5073127;28;20016;-79
2022/09/26 05:42:40;;;;;;;10.75;8.15;;;;;;;15.09;49.84;99412.81;5093041;28;20043;-79
2022/09/26 05:45:05;;;;;;;9.40;8.10;;;;;;;15.45;49.65;99457.47;5092915;28;20020;-79
2022/09/26 05:47:35;;;;;;;11.45;7.45;;;;;;;15.45;49.92;99468.13;5092061;28;20464;-79
2022/09/26 05:50:08;;;;;;;12.82;8.55;;;;;;;14.79;49.77;99359.31;5092826;28;20492;-78
2022/09/26 05:52:34;;;;;;;10.25;7.18;;;;;;;15.57;49.68;99467.28;5081933;28;20020;-78
2022/09/26 05:55:00;;;;;;;11.77;7.68;;;;;;;15.20;49.98;99390.88;5072778;28;20024;-79
2022/09/26 05:57:25;;;;;;;11.93;7.43;;;;;;;15.55;49.86;99437.38;5073142;28;20382;-79
2022/09/26 05:59:50;;;;;;;10.60;7.55;;;;;;;15.70;49.74;99471.75;5091626;28;20052;-78
2022/09/26 06:02:16;;;;;;;11.63;7.22;;;;;;;15.52;49.43;99407.72;5092502;28;20116;-79
2022/09/26 06:04:42;;;;;;;12.57;7.70;;;;;;;15.29;49.44;99346.25;5091565;28;20373;-79
2022/09/26 06:07:07;;;;;;;9.65;7.70;;;;;;;15.82;49.22;99410.66;5092702;28;20035;-78
2022/09/26 06:09:32;;;;;;;11.30;7.75;;;;;;;15.98;49.43;99425.28;5079851;28;20035;-79
2022/09/26 06:11:59;;;;;;;13.48;8.30;;;;;;;16.22;49.30;99448.47;5072513;28;20044;-79
2022/09/26 06:14:25;;;;;;;15.20;8.70;;;;;;;15.58;49.24;99333.19;5075420;28;20398;-78
2022/09/26 06:16:51;;;;;;;15.00;7.60;;;;;;;16.38;49.22;99441.81;5072493;28;20097;-79
2022/09/26 06:19:16;;;;;;;15.30;8.23;;;;;;;16.48;48.61;99447.47;5070905;28;20085;-78
2022/09/26 06:21:42;;;;;;;14.32;7.90;;;;;;;15.97;48.79;99349.91;5076434;28;20024;-79
2022/09/26 06:24:09;;;;;;;16.80;9.52;;;;;;;16.45;48.22;99431.91;5092434;28;20174;-79
2022/09/26 06:26:35;;;;;;;16.63;7.95;;;;;;;16.56;47.99;99407.22;5092314;28;20051;-79
2022/09/26 06:29:01;;;;;;;16.23;8.63;;;;;;;17.00;48.00;99446.16;5080550;28;20099;-79
2022/09/26 06:31:27;;;;;;;13.63;8.00;;;;;;;17.02;47.97;99459.28;5084965;28;20497;-79
2022/09/26 06:33:54;;;;;;;11.25;7.18;;;;;;;16.76;47.79;99399.84;5085637;28;20484;-79
2022/09/26 06:36:24;;;;;;;10.73;6.65;;;;;;;17.16;47.78;99444.78;5091237;28;20077;-79
2022/09/26 06:38:52;;;;;;;11.52;6.88;;;;;;;17.05;47.94;99408.97;5092539;28;20497;-79
2022/09/26 06:41:18;;;;;;;10.25;6.97;;;;;;;16.97;47.86;99398.59;5090094;28;20039;-79
2022/09/26 06:43:44;;;;;;;11.85;8.13;;;;;;;17.18;47.39;99420.53;5091777;28;20425;-78
2022/09/26 06:46:12;;;;;;;11.98;8.60;;;;;;;17.38;47.57;99442.47;5090809;28;20035;-79
2022/09/26 06:48:37;;;;;;;11.57;8.25;;;;;;;17.25;47.07;99414.09;5071271;28;20107;-79
2022/09/26 06:51:03;;;;;;;17.27;12.95;;;;;;;16.91;47.16;99356.81;5074758;28;20503;-78
2022/09/26 06:53:28;;;;;;;9.05;7.88;;;;;;;17.58;46.68;99450.22;5085836;28;20496;-79
2022/09/26 06:55:54;;;;;;;22.60;18.27;;;;;;;17.38;46.42;99405.09;5089579;28;20081;-79
2022/09/26 06:58:19;;;;;;;11.00;7.60;;;;;;;17.74;46.17;99447.75;5089189;28;20482;-79
2022/09/26 07:00:46;;;;;;;9.40;8.05;;;;;;;17.78;46.00;99451.59;5086969;28;20056;-79
2022/09/26 07:03:14;;;;;;;17.35;13.93;;;;;;;17.89;45.76;99435.88;5091149;28;20112;-78
2022/09/26 07:05:39;;;;;;;10.40;9.07;;;;;;;17.40;45.43;99346.97;5091613;28;20028;-79
2022/09/26 07:08:05;;;;;;;14.35;7.70;;;;;;;17.90;45.26;99405.44;5081994;28;20549;-79
2022/09/26 07:10:33;;;;;;;19.42;11.95;;;;;;;17.06;45.17;99274.53;5091771;28;20024;-79
2022/09/26 07:13:04;;;;;;;23.92;15.25;;;;;;;18.19;45.00;99433.97;5091956;28;20023;-78
2022/09/26 07:15:32;;;;;;;12.80;7.43;;;;;;;18.37;44.53;99443.75;5084968;28;20561;-78
2022/09/26 07:18:01;;;;;;;16.65;7.88;;;;;;;18.47;44.46;99453.84;5076455;28;20089;-79
2022/09/26 07:20:29;;;;;;;17.25;12.23;;;;;;;17.96;44.64;99367.94;5080357;28;20035;-79
2022/09/26 07:22:54;;;;;;;12.60;8.48;;;;;;;17.88;44.82;99351.44;5076826;28;20145;-78
2022/09/26 07:25:20;;;;;;;11.38;8.85;;;;;;;16.86;44.89;99169.19;5086200;28;20111;-79
2022/09/26 07:27:50;;;;;;;13.93;9.20;;;;;;;18.55;45.23;99408.88;5076176;28;20032;-79
2022/09/26 07:30:16;;;;;;;14.45;9.65;;;;;;;18.76;45.43;99430.78;5071520;28;20070;-78
2022/09/26 07:32:45;;;;;;;73.40;12.60;;;;;;;18.15;45.36;99309.06;5078649;28;20516;-78
2022/09/26 07:35:11;;;;;;;50.42;9.00;;;;;;;18.89;45.20;99409.13;5091252;28;20173;-79
2022/09/26 07:37:36;;;;;;;32.97;8.65;;;;;;;17.54;45.38;99188.22;5090297;28;20027;-79
2022/09/26 07:40:02;;;;;;;51.15;9.82;;;;;;;18.96;45.21;99383.06;5088597;28;20084;-78
2022/09/26 07:42:28;;;;;;;7.97;5.20;;;;;;;18.70;45.03;99325.56;5090682;28;20017;-79
2022/09/26 07:44:53;;;;;;;10.63;6.68;;;;;;;18.98;44.94;99354.22;5074513;28;20077;-78
2022/09/26 07:50:13;;;;;;;11.80;7.15;;;;;;;19.48;45.01;99409.81;5091587;28;20027;-78
2022/09/26 07:52:41;;;;;;;17.10;8.73;;;;;;;19.40;44.89;99373.53;5089085;28;20027;-78
2022/09/26 07:55:08;;;;;;;14.60;10.70;;;;;;;19.50;45.00;99384.41;5078692;28;20024;-79
2022/09/26 07:57:34;;;;;;;9.18;5.50;;;;;;;19.67;44.55;99401.38;5088871;28;20024;-78
2022/09/26 08:00:11;;;;;;;7.57;5.03;;;;;;;19.80;44.18;99404.78;5087069;28;20049;-78
2022/09/26 08:02:41;;;;;;;5.78;4.63;;;;;;;19.52;44.00;99352.03;5072409;28;20024;-78
2022/09/26 08:05:07;;;;;;;7.47;4.60;;;;;;;19.53;44.00;99327.72;5070524;28;20457;-79
2022/09/26 08:07:36;;;;;;;8.65;5.15;;;;;;;19.98;43.67;99393.84;5081338;28;20412;-79
2022/09/26 08:10:04;;;;;;;5.90;4.38;;;;;;;19.66;43.70;99338.13;5071899;28;20046;-78
2022/09/26 08:12:38;;;;;;;6.93;5.30;;;;;;;19.84;43.94;99360.38;5075202;28;20489;-78
2022/09/26 08:15:05;;;;;;;10.68;4.82;;;;;;;20.21;43.62;99396.41;5085968;28;20508;-79
2022/09/26 08:17:32;;;;;;;6.00;5.35;;;;;;;20.34;43.94;99394.44;5086205;28;20530;-79
2022/09/26 08:19:59;;;;;;;11.25;5.38;;;;;;;19.87;43.73;99317.03;5082505;28;20074;-79
2022/09/26 08:22:24;;;;;;;8.55;4.85;;;;;;;20.52;43.79;99394.22;5077607;28;20021;-79
2022/09/26 08:24:50;;;;;;;5.18;3.88;;;;;;;20.27;43.48;99375.84;5094214;28;20093;-78
2022/09/26 08:27:17;;;;;;;5.45;4.50;;;;;;;20.71;43.26;99392.06;5073514;28;20020;-79
2022/09/26 08:29:47;;;;;;;7.05;6.35;;;;;;;20.84;43.19;99384.50;5075373;28;20094;-79
2022/09/26 08:32:12;;;;;;;8.20;7.40;;;;;;;20.99;42.81;99383.88;5081179;28;20142;-79
2022/09/26 08:34:39;;;;;;;6.80;5.57;;;;;;;20.85;42.89;99361.16;5105516;28;20024;-79
2022/09/26 08:37:05;;;;;;;6.85;5.28;;;;;;;20.58;42.55;99302.03;5092173;28;20131;-79
2022/09/26 08:39:31;;;;;;;7.57;5.10;;;;;;;21.17;42.46;99378.19;5088255;28;20029;-79
2022/09/26 08:42:16;;;;;;;14.15;8.10;;;;;;;21.13;42.39;99360.13;5074725;28;20021;-79
2022/09/26 08:46:11;;;;;;;5.82;5.32;;;;;;;20.70;42.30;99277.75;5077148;28;20023;-79
2022/09/26 08:47:52;;;;;;;8.85;6.60;;;;;;;21.03;42.63;99339.34;5086428;28;20032;-79
2022/09/26 08:50:31;;;;;;;5.68;5.13;;;;;;;21.29;42.72;99348.53;5094315;28;20016;-78
2022/09/26 08:53:11;;;;;;;6.85;5.85;;;;;;;21.16;42.55;99303.25;5093066;28;20023;-78
2022/09/26 08:55:43;;;;;;;6.65;5.82;;;;;;;21.67;42.20;99346.78;5073260;28;20048;-79
2022/09/26 08:58:15;;;;;;;7.05;6.10;;;;;;;21.55;41.70;99299.41;5073404;28;20031;-79
2022/09/26 09:00:41;;;;;;;12.13;10.90;;;;;;;21.62;41.62;99266.13;5072114;28;20437;-79
2022/09/26 09:03:35;;;;;;;12.65;10.27;;;;;;;21.66;41.40;99237.69;5079817;28;20027;-79
2022/09/26 09:06:10;;;;;;;11.43;9.85;;;;;;;22.43;41.28;99325.88;5093503;28;20028;-78
2022/09/26 09:08:49;;;;;;;9.32;7.85;;;;;;;22.41;41.00;99301.13;5103370;28;20016;-79
2022/09/26 09:11:32;;;;;;;5.75;5.03;;;;;;;22.71;40.76;99309.34;5107701;28;20012;-79
2022/09/26 09:14:21;;;;;;;6.53;5.05;;;;;;;22.07;40.69;99215.38;5084101;28;20013;-79
2022/09/26 09:17:02;;;;;;;5.00;4.50;;;;;;;22.45;40.51;99251.09;5073533;28;20111;-79
2022/09/26 09:19:47;;;;;;;7.00;6.28;;;;;;;22.87;40.49;99302.16;5072461;28;20105;-79
2022/09/26 09:22:51;;;;;;;6.15;5.55;;;;;;;22.76;40.86;99258.22;5072355;28;20023;-78
2022/09/26 09:25:37;;;;;;;5.72;5.05;;;;;;;22.65;40.53;99205.44;5073941;28;20501;-78
2022/09/26 09:28:18;;;;;;;9.05;8.10;;;;;;;23.20;40.80;99284.75;5076053;28;20025;-78
2022/09/26 09:30:54;;;;;;;8.52;6.50;;;;;;;23.36;40.68;99283.72;5088733;28;20039;-78
2022/09/26 09:33:35;;;;;;;6.70;5.28;;;;;;;23.53;40.54;99290.72;5091859;28;20095;-80
2022/09/26 09:36:13;;;;;;;6.00;5.40;;;;;;;23.64;40.08;99276.19;5090777;28;20047;-79
2022/09/26 09:38:42;;;;;;;5.72;5.20;;;;;;;23.27;39.88;99190.22;5089872;28;20034;-79
2022/09/26 09:41:13;;;;;;;5.30;4.80;;;;;;;24.07;39.37;99283.75;5091489;28;20042;-78
2022/09/26 09:43:38;;;;;;;7.45;6.70;;;;;;;24.22;39.28;99279.38;5092926;28;20052;-78
2022/09/26 09:46:11;;;;;;;15.35;13.65;;;;;;;23.61;39.52;99191.31;5092936;28;20471;-78
2022/09/26 09:48:37;;;;;;;8.82;8.02;;;;;;;23.94;39.67;99245.75;5093073;28;20077;-79
2022/09/26 09:51:14;;;;;;;9.07;6.13;;;;;;;24.38;39.31;99262.91;5090911;28;20016;-79
2022/09/26 09:53:49;;;;;;;9.05;8.20;;;;;;;24.48;38.93;99243.16;5072826;28;20036;-79
2022/09/26 09:56:46;;;;;;;15.73;14.23;;;;;;;24.58;38.33;99226.97;5072805;28;20028;-77
2022/09/26 09:59:39;;;;;;;9.98;8.98;;;;;;;25.09;37.55;99261.81;5061157;28;20045;-79
2022/09/26 10:02:19;;;;;;;5.13;3.83;;;;;;;25.34;36.80;99250.84;5086623;28;20055;-78
2022/09/26 10:04:55;;;;;;;6.88;6.28;;;;;;;25.08;36.46;99206.16;5091194;28;20032;-79
2022/09/26 10:07:20;;;;;;;7.28;6.57;;;;;;;25.62;36.09;99246.56;5092393;28;20035;-78
2022/09/26 10:09:50;;;;;;;6.55;5.82;;;;;;;24.94;36.09;99116.84;5084310;28;20021;-79
2022/09/26 10:12:19;;;;;;;11.05;7.45;;;;;;;25.38;35.66;99161.91;5084983;28;20584;-79
2022/09/26 10:14:55;;;;;;;9.80;6.07;;;;;;;25.37;35.66;99145.97;5092676;28;20024;-78
2022/09/26 10:17:22;;;;;;;4.38;3.97;;;;;;;25.63;35.62;99158.16;5090372;28;20034;-78
2022/09/26 10:19:49;;;;;;;3.97;3.25;;;;;;;26.43;35.45;99227.94;5091401;28;20036;-78
2022/09/26 10:22:24;;;;;;;9.07;6.45;;;;;;;26.49;35.24;99205.94;5092332;28;20425;-78
2022/09/26 10:24:58;;;;;;;10.98;9.82;;;;;;;26.84;34.98;99230.94;5092430;28;20111;-78
2022/09/26 10:27:39;;;;;;;9.00;6.43;;;;;;;26.94;34.77;99219.16;5092549;28;20027;-79
2022/09/26 10:30:29;;;;;;;7.35;4.47;;;;;;;27.00;34.87;99210.69;5089600;28;20038;-78
2022/09/26 10:33:00;;;;;;;6.88;6.18;;;;;;;27.15;34.71;99196.09;5071871;28;20182;-78
2022/09/26 10:35:38;;;;;;;13.05;11.57;;;;;;;27.42;34.69;99200.81;5076044;28;20389;-78
2022/09/26 10:38:20;;;;;;;5.35;4.90;;;;;;;27.21;33.90;99130.66;5089975;28;20036;-78
2022/09/26 10:41:03;;;;;;;;;;;;;;;27.62;33.69;99181.53;5076464;28;20051;-78
2022/09/26 10:43:30;;;;;;;6.75;4.13;;;;;;;27.51;33.54;99170.03;5076951;28;21609;-78
2022/09/26 10:46:12;;;;;;;5.72;5.22;;;;;;;27.41;33.83;99139.56;5074971;28;20024;-79
2022/09/26 10:48:48;;;;;;;6.57;5.05;;;;;;;27.74;32.72;99157.44;5073810;28;20033;-78
2022/09/26 10:51:34;;;;;;;4.82;4.32;;;;;;;27.83;31.40;99160.25;5083676;28;20534;-78
2022/09/26 10:54:14;;;;;;;6.38;5.38;;;;;;;27.87;31.24;99161.25;5072097;28;20028;-79
2022/09/26 10:56:46;;;;;;;7.32;4.18;;;;;;;27.85;29.48;99148.00;5074017;28;20031;-78
2022/09/26 10:59:15;;;;;;;4.78;3.88;;;;;;;27.54;30.41;99120.63;5090477;28;20028;-78
2022/09/26 11:01:44;;;;;;;6.53;2.72;;;;;;;27.40;30.61;99121.69;5089057;28;20040;-78
2022/09/26 11:07:07;;;;;;;5.63;4.05;;;;;;;27.59;31.06;99148.75;5091619;28;20124;-78
2022/09/26 11:09:34;;;;;;;5.47;3.75;;;;;;;27.50;31.32;99143.22;5083830;28;20020;-79
2022/09/26 11:12:24;;;;;;;4.97;4.50;;;;;;;27.19;30.63;99130.16;5070926;28;20029;-78
2022/09/26 11:14:55;;;;;;;5.78;4.50;;;;;;;26.68;31.49;99048.88;5071056;28;20048;-79
2022/09/26 11:17:21;;;;;;;3.45;2.63;;;;;;;26.66;31.43;99047.56;5082467;28;20108;-79
2022/09/26 11:19:57;;;;;;;7.00;6.32;;;;;;;25.71;31.27;98902.56;5082842;28;20016;-77
2022/09/26 11:22:46;;;;;;;6.25;4.32;;;;;;;27.30;31.52;99119.16;5081024;28;20035;-78
2022/09/26 11:25:43;;;;;;;4.10;3.55;;;;;;;26.62;31.46;98987.78;5089173;28;20115;-78
2022/09/26 11:28:22;;;;;;;5.90;5.38;;;;;;;27.54;31.72;99111.69;5067928;28;20036;-78
2022/09/26 11:30:54;;;;;;;5.18;4.68;;;;;;;27.10;31.83;99039.00;5082881;28;20031;-78
2022/09/26 11:33:20;;;;;;;4.80;4.38;;;;;;;27.36;31.79;99044.75;5090002;28;20020;-78
2022/09/26 11:36:09;;;;;;;3.65;3.30;;;;;;;27.75;31.61;99115.63;5086413;28;20017;-78
2022/09/26 11:38:46;;;;;;;3.28;2.70;;;;;;;27.08;31.58;99039.31;5088092;28;20082;-78
2022/09/26 11:41:36;;;;;;;4.35;3.25;;;;;;;27.34;31.27;99106.59;5071228;28;20511;-78
2022/09/26 11:44:16;;;;;;;5.60;4.90;;;;;;;27.21;31.69;99100.84;5084955;28;20560;-79
2022/09/26 11:47:09;;;;;;;2.67;2.47;;;;;;;27.13;31.74;99093.41;5079195;28;20024;-78
2022/09/26 11:49:52;;;;;;;3.92;3.60;;;;;;;27.08;32.36;99092.69;5077549;28;20059;-78
2022/09/26 11:52:38;;;;;;;4.65;3.95;;;;;;;26.68;32.53;99034.53;5075735;28;20032;-78
2022/09/26 11:55:03;;;;;;;4.63;3.03;;;;;;;26.90;32.11;99083.47;5074914;28;20509;-79
2022/09/26 11:58:06;;;;;;;5.50;3.00;;;;;;;26.88;32.34;99100.03;5087204;28;20034;-78
2022/09/26 12:01:15;;;;;;;9.00;8.13;;;;;;;26.53;31.57;99041.00;5089409;28;20054;-78
2022/09/26 12:04:07;;;;;;;3.15;2.85;;;;;;;26.86;31.56;99082.47;5092107;28;20044;-79